sensor_id;sensor_type;location;lat;lon;timestamp;P1;durP1;ratioP1;P2;durP2;ratioP2
70825;SDS011;58446;41.490;22.098;2023-06-01T00:02:03;9.13;;;5.30;;
70825;SDS011;58446;41.490;22.098;2023-06-01T00:04:29;8.02;;;4.88;;
70825;SDS011;58446;41.490;22.098;2023-06-01T00:06:54;10.05;;;5.63;;
70825;SDS011;58446;41.490;22.098;2023-06-01T00:09:21;11.10;;;5.03;;
70825;SDS011;58446;41.490;22.098;2023-06-01T00:11:47;10.10;;;5.43;;
70825;SDS011;58446;41.490;22.098;2023-06-01T00:14:13;9.53;;;5.13;;
70825;SDS011;58446;41.490;22.098;2023-06-01T00:16:38;10.48;;;5.20;;
70825;SDS011;58446;41.490;22.098;2023-06-01T00:19:04;8.80;;;5.23;;
70825;SDS011;58446;41.490;22.098;2023-06-01T00:21:30;11.38;;;5.32;;
70825;SDS011;58446;41.490;22.098;2023-06-01T00:23:58;9.38;;;5.10;;
70825;SDS011;58446;41.490;22.098;2023-06-01T00:26:24;9.65;;;4.82;;
70825;SDS011;58446;41.490;22.098;2023-06-01T00:28:50;11.48;;;4.60;;
70825;SDS011;58446;41.490;22.098;2023-06-01T00:31:16;7.80;;;4.30;;
70825;SDS011;58446;41.490;22.098;2023-06-01T00:33:41;11.10;;;5.05;;
70825;SDS011;58446;41.490;22.098;2023-06-01T00:36:07;8.80;;;4.43;;
70825;SDS011;58446;41.490;22.098;2023-06-01T00:38:33;9.18;;;4.53;;
70825;SDS011;58446;41.490;22.098;2023-06-01T00:40:58;8.43;;;4.63;;
70825;SDS011;58446;41.490;22.098;2023-06-01T00:43:24;10.32;;;4.55;;
70825;SDS011;58446;41.490;22.098;2023-06-01T00:45:50;9.33;;;4.57;;
70825;SDS011;58446;41.490;22.098;2023-06-01T00:48:16;11.13;;;5.40;;
70825;SDS011;58446;41.490;22.098;2023-06-01T00:50:42;9.87;;;5.40;;
70825;SDS011;58446;41.490;22.098;2023-06-01T00:53:11;8.13;;;5.15;;
70825;SDS011;58446;41.490;22.098;2023-06-01T00:55:41;9.07;;;4.60;;
70825;SDS011;58446;41.490;22.098;2023-06-01T00:58:07;10.50;;;5.30;;
70825;SDS011;58446;41.490;22.098;2023-06-01T01:00:33;8.63;;;4.90;;
70825;SDS011;58446;41.490;22.098;2023-06-01T01:02:58;9.63;;;5.43;;
70825;SDS011;58446;41.490;22.098;2023-06-01T01:05:32;10.32;;;4.93;;
70825;SDS011;58446;41.490;22.098;2023-06-01T01:13:23;9.90;;;4.60;;
70825;SDS011;58446;41.490;22.098;2023-06-01T01:18:36;8.60;;;4.65;;
70825;SDS011;58446;41.490;22.098;2023-06-01T01:21:07;10.75;;;4.78;;
70825;SDS011;58446;41.490;22.098;2023-06-01T01:29:49;10.80;;;4.97;;
70825;SDS011;58446;41.490;22.098;2023-06-01T01:32:17;9.90;;;5.40;;
70825;SDS011;58446;41.490;22.098;2023-06-01T01:34:45;11.30;;;5.38;;
70825;SDS011;58446;41.490;22.098;2023-06-01T01:37:12;10.20;;;5.45;;
70825;SDS011;58446;41.490;22.098;2023-06-01T01:39:38;12.97;;;5.53;;
70825;SDS011;58446;41.490;22.098;2023-06-01T01:42:03;10.27;;;5.47;;
70825;SDS011;58446;41.490;22.098;2023-06-01T01:44:30;12.07;;;5.33;;
70825;SDS011;58446;41.490;22.098;2023-06-01T01:46:57;10.27;;;5.22;;
70825;SDS011;58446;41.490;22.098;2023-06-01T01:49:36;12.65;;;5.93;;
70825;SDS011;58446;41.490;22.098;2023-06-01T01:52:26;8.38;;;5.38;;
70825;SDS011;58446;41.490;22.098;2023-06-01T01:54:58;11.40;;;5.50;;
70825;SDS011;58446;41.490;22.098;2023-06-01T01:57:26;9.67;;;5.20;;
70825;SDS011;58446;41.490;22.098;2023-06-01T01:59:54;12.18;;;5.88;;
70825;SDS011;58446;41.490;22.098;2023-06-01T02:02:21;8.95;;;5.18;;
70825;SDS011;58446;41.490;22.098;2023-06-01T02:04:47;9.80;;;5.47;;
70825;SDS011;58446;41.490;22.098;2023-06-01T02:07:12;9.63;;;5.53;;
70825;SDS011;58446;41.490;22.098;2023-06-01T02:09:39;9.80;;;5.15;;
70825;SDS011;58446;41.490;22.098;2023-06-01T02:12:06;9.32;;;5.22;;
70825;SDS011;58446;41.490;22.098;2023-06-01T02:14:32;13.85;;;6.18;;
70825;SDS011;58446;41.490;22.098;2023-06-01T02:16:58;10.00;;;5.60;;
70825;SDS011;58446;41.490;22.098;2023-06-01T02:19:26;12.35;;;6.00;;
70825;SDS011;58446;41.490;22.098;2023-06-01T02:21:52;12.30;;;5.93;;
70825;SDS011;58446;41.490;22.098;2023-06-01T02:24:18;10.60;;;5.07;;
70825;SDS011;58446;41.490;22.098;2023-06-01T02:26:48;11.43;;;5.33;;
70825;SDS011;58446;41.490;22.098;2023-06-01T02:29:17;13.48;;;5.10;;
70825;SDS011;58446;41.490;22.098;2023-06-01T02:31:44;10.13;;;5.10;;
70825;SDS011;58446;41.490;22.098;2023-06-01T02:34:11;11.13;;;5.30;;
70825;SDS011;58446;41.490;22.098;2023-06-01T02:36:36;8.20;;;5.05;;
70825;SDS011;58446;41.490;22.098;2023-06-01T02:39:03;10.87;;;5.23;;
70825;SDS011;58446;41.490;22.098;2023-06-01T02:41:28;9.48;;;4.97;;
70825;SDS011;58446;41.490;22.098;2023-06-01T02:43:54;12.75;;;4.70;;
70825;SDS011;58446;41.490;22.098;2023-06-01T02:46:20;9.93;;;4.77;;
70825;SDS011;58446;41.490;22.098;2023-06-01T02:48:46;10.83;;;5.10;;
70825;SDS011;58446;41.490;22.098;2023-06-01T02:51:11;10.70;;;4.80;;
70825;SDS011;58446;41.490;22.098;2023-06-01T02:53:40;11.35;;;5.25;;
70825;SDS011;58446;41.490;22.098;2023-06-01T02:56:07;9.55;;;5.00;;
70825;SDS011;58446;41.490;22.098;2023-06-01T02:58:33;10.85;;;4.75;;
70825;SDS011;58446;41.490;22.098;2023-06-01T03:00:59;9.07;;;4.90;;
70825;SDS011;58446;41.490;22.098;2023-06-01T03:03:25;10.75;;;5.10;;
70825;SDS011;58446;41.490;22.098;2023-06-01T03:05:51;9.05;;;4.72;;
70825;SDS011;58446;41.490;22.098;2023-06-01T03:08:17;9.65;;;4.78;;
70825;SDS011;58446;41.490;22.098;2023-06-01T03:10:43;8.20;;;4.40;;
70825;SDS011;58446;41.490;22.098;2023-06-01T03:13:09;10.88;;;4.82;;
70825;SDS011;58446;41.490;22.098;2023-06-01T03:15:35;10.77;;;5.10;;
70825;SDS011;58446;41.490;22.098;2023-06-01T03:18:02;8.63;;;4.70;;
70825;SDS011;58446;41.490;22.098;2023-06-01T03:20:29;11.02;;;5.00;;
70825;SDS011;58446;41.490;22.098;2023-06-01T03:22:55;10.43;;;5.70;;
70825;SDS011;58446;41.490;22.098;2023-06-01T03:25:20;11.43;;;5.03;;
70825;SDS011;58446;41.490;22.098;2023-06-01T03:27:46;8.35;;;4.97;;
70825;SDS011;58446;41.490;22.098;2023-06-01T03:30:12;10.48;;;5.28;;
70825;SDS011;58446;41.490;22.098;2023-06-01T03:32:38;8.63;;;5.50;;
70825;SDS011;58446;41.490;22.098;2023-06-01T03:35:11;7.97;;;5.18;;
70825;SDS011;58446;41.490;22.098;2023-06-01T03:37:37;11.73;;;5.53;;
70825;SDS011;58446;41.490;22.098;2023-06-01T03:40:04;9.85;;;5.70;;
70825;SDS011;58446;41.490;22.098;2023-06-01T03:42:37;10.47;;;4.60;;
70825;SDS011;58446;41.490;22.098;2023-06-01T03:45:08;11.18;;;5.53;;
70825;SDS011;58446;41.490;22.098;2023-06-01T03:47:35;11.18;;;5.13;;
70825;SDS011;58446;41.490;22.098;2023-06-01T03:50:01;11.05;;;5.50;;
70825;SDS011;58446;41.490;22.098;2023-06-01T03:52:28;12.17;;;5.50;;
70825;SDS011;58446;41.490;22.098;2023-06-01T03:54:58;11.98;;;5.53;;
70825;SDS011;58446;41.490;22.098;2023-06-01T03:57:26;9.18;;;5.40;;
70825;SDS011;58446;41.490;22.098;2023-06-01T03:59:52;9.70;;;5.18;;
70825;SDS011;58446;41.490;22.098;2023-06-01T04:02:17;10.00;;;4.90;;
70825;SDS011;58446;41.490;22.098;2023-06-01T04:04:44;9.95;;;5.03;;
70825;SDS011;58446;41.490;22.098;2023-06-01T04:07:12;13.38;;;5.20;;
70825;SDS011;58446;41.490;22.098;2023-06-01T04:09:44;11.75;;;4.88;;
70825;SDS011;58446;41.490;22.098;2023-06-01T04:12:12;17.80;;;5.67;;
70825;SDS011;58446;41.490;22.098;2023-06-01T04:14:39;11.75;;;5.13;;
70825;SDS011;58446;41.490;22.098;2023-06-01T04:17:05;12.60;;;5.28;;
70825;SDS011;58446;41.490;22.098;2023-06-01T04:19:31;13.32;;;5.40;;
70825;SDS011;58446;41.490;22.098;2023-06-01T04:21:58;12.13;;;6.05;;
70825;SDS011;58446;41.490;22.098;2023-06-01T04:24:24;13.33;;;6.30;;
70825;SDS011;58446;41.490;22.098;2023-06-01T04:26:53;18.10;;;6.10;;
70825;SDS011;58446;41.490;22.098;2023-06-01T04:29:21;12.20;;;5.88;;
70825;SDS011;58446;41.490;22.098;2023-06-01T04:31:47;13.23;;;6.10;;
70825;SDS011;58446;41.490;22.098;2023-06-01T04:34:13;12.60;;;5.68;;
70825;SDS011;58446;41.490;22.098;2023-06-01T04:36:39;13.40;;;5.90;;
70825;SDS011;58446;41.490;22.098;2023-06-01T04:39:05;10.43;;;5.65;;
70825;SDS011;58446;41.490;22.098;2023-06-01T04:41:32;8.48;;;5.50;;
70825;SDS011;58446;41.490;22.098;2023-06-01T04:44:00;11.80;;;5.67;;
70825;SDS011;58446;41.490;22.098;2023-06-01T04:46:26;10.20;;;5.50;;
70825;SDS011;58446;41.490;22.098;2023-06-01T04:48:53;9.75;;;5.47;;
70825;SDS011;58446;41.490;22.098;2023-06-01T04:51:22;10.27;;;5.55;;
70825;SDS011;58446;41.490;22.098;2023-06-01T04:53:51;10.63;;;5.90;;
70825;SDS011;58446;41.490;22.098;2023-06-01T04:56:19;10.07;;;5.97;;
70825;SDS011;58446;41.490;22.098;2023-06-01T04:58:49;8.15;;;5.43;;
70825;SDS011;58446;41.490;22.098;2023-06-01T05:01:16;14.38;;;5.63;;
70825;SDS011;58446;41.490;22.098;2023-06-01T05:03:45;10.18;;;5.50;;
70825;SDS011;58446;41.490;22.098;2023-06-01T05:06:12;11.45;;;5.22;;
70825;SDS011;58446;41.490;22.098;2023-06-01T05:08:41;12.40;;;5.50;;
70825;SDS011;58446;41.490;22.098;2023-06-01T05:11:07;13.98;;;5.82;;
70825;SDS011;58446;41.490;22.098;2023-06-01T05:13:37;9.80;;;5.43;;
70825;SDS011;58446;41.490;22.098;2023-06-01T05:16:04;10.27;;;5.50;;
70825;SDS011;58446;41.490;22.098;2023-06-01T05:18:31;13.05;;;5.82;;
70825;SDS011;58446;41.490;22.098;2023-06-01T05:20:57;10.90;;;5.40;;
70825;SDS011;58446;41.490;22.098;2023-06-01T05:23:23;10.75;;;5.57;;
70825;SDS011;58446;41.490;22.098;2023-06-01T05:25:51;9.45;;;5.15;;
70825;SDS011;58446;41.490;22.098;2023-06-01T05:28:17;10.20;;;5.07;;
70825;SDS011;58446;41.490;22.098;2023-06-01T05:30:42;10.43;;;5.27;;
70825;SDS011;58446;41.490;22.098;2023-06-01T05:33:08;11.30;;;5.47;;
70825;SDS011;58446;41.490;22.098;2023-06-01T05:35:34;11.90;;;6.03;;
70825;SDS011;58446;41.490;22.098;2023-06-01T05:38:00;11.95;;;5.88;;
70825;SDS011;58446;41.490;22.098;2023-06-01T05:40:27;10.90;;;5.73;;
70825;SDS011;58446;41.490;22.098;2023-06-01T05:42:52;9.10;;;5.28;;
70825;SDS011;58446;41.490;22.098;2023-06-01T05:45:18;8.73;;;5.43;;
70825;SDS011;58446;41.490;22.098;2023-06-01T05:47:43;11.97;;;5.33;;
70825;SDS011;58446;41.490;22.098;2023-06-01T05:50:09;9.93;;;4.97;;
70825;SDS011;58446;41.490;22.098;2023-06-01T05:52:35;10.87;;;5.13;;
70825;SDS011;58446;41.490;22.098;2023-06-01T05:55:01;10.45;;;5.05;;
70825;SDS011;58446;41.490;22.098;2023-06-01T05:57:27;11.55;;;5.60;;
70825;SDS011;58446;41.490;22.098;2023-06-01T05:59:53;10.63;;;5.20;;
70825;SDS011;58446;41.490;22.098;2023-06-01T06:02:18;9.27;;;5.32;;
70825;SDS011;58446;41.490;22.098;2023-06-01T06:04:44;11.13;;;5.43;;
70825;SDS011;58446;41.490;22.098;2023-06-01T06:07:10;9.45;;;5.40;;
70825;SDS011;58446;41.490;22.098;2023-06-01T06:09:36;11.50;;;5.53;;
70825;SDS011;58446;41.490;22.098;2023-06-01T06:12:02;8.33;;;5.10;;
70825;SDS011;58446;41.490;22.098;2023-06-01T06:14:28;11.77;;;5.60;;
70825;SDS011;58446;41.490;22.098;2023-06-01T06:16:53;9.53;;;5.17;;
70825;SDS011;58446;41.490;22.098;2023-06-01T06:19:20;10.23;;;5.30;;
70825;SDS011;58446;41.490;22.098;2023-06-01T06:21:46;10.95;;;5.40;;
70825;SDS011;58446;41.490;22.098;2023-06-01T06:24:11;8.23;;;5.00;;
70825;SDS011;58446;41.490;22.098;2023-06-01T06:26:37;10.43;;;5.80;;
70825;SDS011;58446;41.490;22.098;2023-06-01T06:29:02;9.40;;;5.40;;
70825;SDS011;58446;41.490;22.098;2023-06-01T06:31:28;13.02;;;6.15;;
70825;SDS011;58446;41.490;22.098;2023-06-01T06:33:54;11.70;;;5.90;;
70825;SDS011;58446;41.490;22.098;2023-06-01T06:36:20;9.73;;;5.28;;
70825;SDS011;58446;41.490;22.098;2023-06-01T06:38:46;9.13;;;5.37;;
70825;SDS011;58446;41.490;22.098;2023-06-01T06:41:11;8.50;;;4.65;;
70825;SDS011;58446;41.490;22.098;2023-06-01T06:43:37;11.10;;;5.30;;
70825;SDS011;58446;41.490;22.098;2023-06-01T06:46:03;9.43;;;5.10;;
70825;SDS011;58446;41.490;22.098;2023-06-01T06:48:29;10.18;;;5.90;;
70825;SDS011;58446;41.490;22.098;2023-06-01T06:50:55;9.30;;;5.03;;
70825;SDS011;58446;41.490;22.098;2023-06-01T06:53:21;10.15;;;5.28;;
70825;SDS011;58446;41.490;22.098;2023-06-01T06:55:47;9.13;;;5.70;;
70825;SDS011;58446;41.490;22.098;2023-06-01T06:58:12;8.57;;;5.30;;
70825;SDS011;58446;41.490;22.098;2023-06-01T07:00:39;9.07;;;4.93;;
70825;SDS011;58446;41.490;22.098;2023-06-01T07:03:07;7.85;;;4.63;;
70825;SDS011;58446;41.490;22.098;2023-06-01T07:05:34;8.98;;;4.80;;
70825;SDS011;58446;41.490;22.098;2023-06-01T07:07:59;9.70;;;4.60;;
70825;SDS011;58446;41.490;22.098;2023-06-01T07:10:25;8.73;;;5.47;;
70825;SDS011;58446;41.490;22.098;2023-06-01T07:12:51;10.13;;;5.00;;
70825;SDS011;58446;41.490;22.098;2023-06-01T07:15:17;8.32;;;4.97;;
70825;SDS011;58446;41.490;22.098;2023-06-01T07:17:43;11.45;;;5.07;;
70825;SDS011;58446;41.490;22.098;2023-06-01T07:20:09;8.97;;;4.90;;
70825;SDS011;58446;41.490;22.098;2023-06-01T07:22:38;8.35;;;5.10;;
70825;SDS011;58446;41.490;22.098;2023-06-01T07:25:05;9.80;;;4.20;;
70825;SDS011;58446;41.490;22.098;2023-06-01T07:27:31;7.70;;;4.93;;
70825;SDS011;58446;41.490;22.098;2023-06-01T07:30:01;8.53;;;4.20;;
70825;SDS011;58446;41.490;22.098;2023-06-01T07:32:30;10.95;;;4.90;;
70825;SDS011;58446;41.490;22.098;2023-06-01T07:34:55;8.43;;;4.85;;
70825;SDS011;58446;41.490;22.098;2023-06-01T07:37:23;7.68;;;4.68;;
70825;SDS011;58446;41.490;22.098;2023-06-01T07:39:52;8.43;;;4.70;;
70825;SDS011;58446;41.490;22.098;2023-06-01T07:42:20;9.50;;;4.50;;
70825;SDS011;58446;41.490;22.098;2023-06-01T07:44:46;7.90;;;4.43;;
70825;SDS011;58446;41.490;22.098;2023-06-01T07:47:12;9.90;;;4.73;;
70825;SDS011;58446;41.490;22.098;2023-06-01T07:49:40;8.70;;;4.20;;
70825;SDS011;58446;41.490;22.098;2023-06-01T07:52:06;7.03;;;4.60;;
70825;SDS011;58446;41.490;22.098;2023-06-01T07:54:35;10.02;;;4.90;;
70825;SDS011;58446;41.490;22.098;2023-06-01T07:57:04;10.23;;;5.10;;
70825;SDS011;58446;41.490;22.098;2023-06-01T07:59:31;8.65;;;4.78;;
70825;SDS011;58446;41.490;22.098;2023-06-01T08:01:56;8.60;;;4.85;;
70825;SDS011;58446;41.490;22.098;2023-06-01T08:04:23;7.93;;;5.00;;
70825;SDS011;58446;41.490;22.098;2023-06-01T08:06:51;10.75;;;4.85;;
70825;SDS011;58446;41.490;22.098;2023-06-01T08:09:21;8.67;;;4.57;;
70825;SDS011;58446;41.490;22.098;2023-06-01T08:11:47;8.05;;;4.70;;
70825;SDS011;58446;41.490;22.098;2023-06-01T08:14:13;8.73;;;4.88;;
70825;SDS011;58446;41.490;22.098;2023-06-01T08:16:41;9.88;;;5.25;;
70825;SDS011;58446;41.490;22.098;2023-06-01T08:19:07;7.65;;;5.13;;
70825;SDS011;58446;41.490;22.098;2023-06-01T08:21:33;7.77;;;4.83;;
70825;SDS011;58446;41.490;22.098;2023-06-01T08:24:00;9.40;;;4.70;;
70825;SDS011;58446;41.490;22.098;2023-06-01T08:26:27;10.10;;;5.10;;
70825;SDS011;58446;41.490;22.098;2023-06-01T08:28:53;9.10;;;5.38;;
70825;SDS011;58446;41.490;22.098;2023-06-01T08:31:19;8.40;;;4.83;;
70825;SDS011;58446;41.490;22.098;2023-06-01T08:33:45;11.23;;;5.18;;
70825;SDS011;58446;41.490;22.098;2023-06-01T08:36:12;9.35;;;4.80;;
70825;SDS011;58446;41.490;22.098;2023-06-01T08:38:38;8.35;;;5.35;;
70825;SDS011;58446;41.490;22.098;2023-06-01T08:41:09;8.27;;;5.20;;
70825;SDS011;58446;41.490;22.098;2023-06-01T08:43:42;9.70;;;4.97;;
70825;SDS011;58446;41.490;22.098;2023-06-01T08:46:11;8.75;;;5.15;;
70825;SDS011;58446;41.490;22.098;2023-06-01T08:48:38;8.23;;;4.80;;
70825;SDS011;58446;41.490;22.098;2023-06-01T08:51:05;7.80;;;4.55;;
70825;SDS011;58446;41.490;22.098;2023-06-01T08:53:31;8.97;;;4.97;;
70825;SDS011;58446;41.490;22.098;2023-06-01T08:55:58;8.95;;;4.90;;
70825;SDS011;58446;41.490;22.098;2023-06-01T08:58:24;8.02;;;4.75;;
70825;SDS011;58446;41.490;22.098;2023-06-01T09:00:51;9.73;;;4.73;;
70825;SDS011;58446;41.490;22.098;2023-06-01T09:03:19;8.05;;;4.75;;
70825;SDS011;58446;41.490;22.098;2023-06-01T09:05:45;7.78;;;5.05;;
70825;SDS011;58446;41.490;22.098;2023-06-01T09:08:11;7.80;;;4.90;;
70825;SDS011;58446;41.490;22.098;2023-06-01T09:10:37;11.38;;;4.78;;
70825;SDS011;58446;41.490;22.098;2023-06-01T09:13:02;9.87;;;4.57;;
70825;SDS011;58446;41.490;22.098;2023-06-01T09:15:28;7.87;;;4.57;;
70825;SDS011;58446;41.490;22.098;2023-06-01T09:18:04;9.82;;;5.03;;
70825;SDS011;58446;41.490;22.098;2023-06-01T09:20:31;7.90;;;5.18;;
70825;SDS011;58446;41.490;22.098;2023-06-01T09:22:57;8.63;;;5.30;;
70825;SDS011;58446;41.490;22.098;2023-06-01T09:25:24;10.05;;;5.68;;
70825;SDS011;58446;41.490;22.098;2023-06-01T09:27:54;8.85;;;5.60;;
70825;SDS011;58446;41.490;22.098;2023-06-01T09:30:21;9.88;;;5.32;;
70825;SDS011;58446;41.490;22.098;2023-06-01T09:32:51;7.90;;;5.15;;
70825;SDS011;58446;41.490;22.098;2023-06-01T09:35:40;8.40;;;4.93;;
70825;SDS011;58446;41.490;22.098;2023-06-01T09:38:07;8.55;;;5.00;;
70825;SDS011;58446;41.490;22.098;2023-06-01T09:40:34;10.98;;;5.22;;
70825;SDS011;58446;41.490;22.098;2023-06-01T09:43:00;8.90;;;5.13;;
70825;SDS011;58446;41.490;22.098;2023-06-01T09:45:27;9.25;;;5.85;;
70825;SDS011;58446;41.490;22.098;2023-06-01T09:47:57;10.37;;;5.27;;
70825;SDS011;58446;41.490;22.098;2023-06-01T09:50:42;9.02;;;5.40;;
70825;SDS011;58446;41.490;22.098;2023-06-01T09:53:08;10.32;;;5.32;;
70825;SDS011;58446;41.490;22.098;2023-06-01T09:55:34;9.83;;;5.50;;
70825;SDS011;58446;41.490;22.098;2023-06-01T09:58:19;10.30;;;5.68;;
70825;SDS011;58446;41.490;22.098;2023-06-01T10:00:46;8.57;;;5.40;;
70825;SDS011;58446;41.490;22.098;2023-06-01T10:03:13;9.30;;;5.03;;
70825;SDS011;58446;41.490;22.098;2023-06-01T10:05:40;8.32;;;5.38;;
70825;SDS011;58446;41.490;22.098;2023-06-01T10:08:07;9.65;;;5.68;;
70825;SDS011;58446;41.490;22.098;2023-06-01T10:10:35;10.55;;;5.70;;
70825;SDS011;58446;41.490;22.098;2023-06-01T10:13:01;8.85;;;5.60;;
70825;SDS011;58446;41.490;22.098;2023-06-01T10:15:27;7.93;;;5.60;;
70825;SDS011;58446;41.490;22.098;2023-06-01T10:17:53;9.85;;;5.60;;
70825;SDS011;58446;41.490;22.098;2023-06-01T10:20:20;8.70;;;5.55;;
70825;SDS011;58446;41.490;22.098;2023-06-01T10:22:46;8.88;;;5.95;;
70825;SDS011;58446;41.490;22.098;2023-06-01T10:25:14;9.03;;;5.20;;
70825;SDS011;58446;41.490;22.098;2023-06-01T10:27:45;9.27;;;5.35;;
70825;SDS011;58446;41.490;22.098;2023-06-01T10:30:19;11.30;;;5.10;;
70825;SDS011;58446;41.490;22.098;2023-06-01T10:32:46;8.40;;;4.57;;
70825;SDS011;58446;41.490;22.098;2023-06-01T10:40:44;8.82;;;4.53;;
70825;SDS011;58446;41.490;22.098;2023-06-01T10:46:01;8.13;;;4.27;;
70825;SDS011;58446;41.490;22.098;2023-06-01T10:51:19;8.63;;;4.53;;
70825;SDS011;58446;41.490;22.098;2023-06-01T10:53:51;7.90;;;4.18;;
70825;SDS011;58446;41.490;22.098;2023-06-01T10:56:23;8.57;;;4.43;;
70825;SDS011;58446;41.490;22.098;2023-06-01T11:01:35;8.30;;;5.07;;
70825;SDS011;58446;41.490;22.098;2023-06-01T11:04:02;9.13;;;4.47;;
70825;SDS011;58446;41.490;22.098;2023-06-01T11:06:29;9.35;;;4.97;;
70825;SDS011;58446;41.490;22.098;2023-06-01T11:09:00;10.90;;;5.50;;
70825;SDS011;58446;41.490;22.098;2023-06-01T11:14:18;8.27;;;5.20;;
70825;SDS011;58446;41.490;22.098;2023-06-01T11:16:46;10.02;;;4.57;;
70825;SDS011;58446;41.490;22.098;2023-06-01T11:19:18;8.73;;;5.30;;
70825;SDS011;58446;41.490;22.098;2023-06-01T11:21:59;9.30;;;5.30;;
70825;SDS011;58446;41.490;22.098;2023-06-01T11:24:33;8.77;;;5.00;;
70825;SDS011;58446;41.490;22.098;2023-06-01T11:27:04;9.70;;;5.57;;
70825;SDS011;58446;41.490;22.098;2023-06-01T11:29:34;9.40;;;5.80;;
70825;SDS011;58446;41.490;22.098;2023-06-01T11:32:01;11.77;;;5.30;;
70825;SDS011;58446;41.490;22.098;2023-06-01T11:34:38;13.10;;;6.27;;
70825;SDS011;58446;41.490;22.098;2023-06-01T11:37:15;10.25;;;6.00;;
70825;SDS011;58446;41.490;22.098;2023-06-01T11:39:43;15.85;;;6.45;;
70825;SDS011;58446;41.490;22.098;2023-06-01T11:42:16;9.38;;;5.93;;
70825;SDS011;58446;41.490;22.098;2023-06-01T11:44:44;9.90;;;5.78;;
70825;SDS011;58446;41.490;22.098;2023-06-01T11:47:12;10.70;;;6.20;;
70825;SDS011;58446;41.490;22.098;2023-06-01T11:49:42;15.10;;;7.00;;
70825;SDS011;58446;41.490;22.098;2023-06-01T11:52:09;11.85;;;7.70;;
70825;SDS011;58446;41.490;22.098;2023-06-01T11:54:36;12.57;;;6.90;;
70825;SDS011;58446;41.490;22.098;2023-06-01T11:57:03;16.90;;;7.72;;
70825;SDS011;58446;41.490;22.098;2023-06-01T11:59:37;10.50;;;7.03;;
70825;SDS011;58446;41.490;22.098;2023-06-01T12:05:02;12.63;;;6.60;;
70825;SDS011;58446;41.490;22.098;2023-06-01T12:10:11;11.70;;;5.88;;
70825;SDS011;58446;41.490;22.098;2023-06-01T12:12:41;13.43;;;5.77;;
70825;SDS011;58446;41.490;22.098;2023-06-01T12:15:14;10.50;;;5.55;;
70825;SDS011;58446;41.490;22.098;2023-06-01T12:20:26;10.32;;;5.78;;
70825;SDS011;58446;41.490;22.098;2023-06-01T12:22:56;14.43;;;6.20;;
70825;SDS011;58446;41.490;22.098;2023-06-01T12:25:28;9.90;;;5.53;;
70825;SDS011;58446;41.490;22.098;2023-06-01T12:28:01;14.80;;;6.82;;
70825;SDS011;58446;41.490;22.098;2023-06-01T12:30:31;10.63;;;6.10;;
70825;SDS011;58446;41.490;22.098;2023-06-01T12:32:57;10.20;;;5.47;;
70825;SDS011;58446;41.490;22.098;2023-06-01T12:35:30;10.38;;;6.00;;
70825;SDS011;58446;41.490;22.098;2023-06-01T12:38:08;10.63;;;6.40;;
70825;SDS011;58446;41.490;22.098;2023-06-01T12:40:36;9.90;;;5.18;;
70825;SDS011;58446;41.490;22.098;2023-06-01T12:43:04;12.00;;;5.78;;
70825;SDS011;58446;41.490;22.098;2023-06-01T12:45:45;11.45;;;6.20;;
70825;SDS011;58446;41.490;22.098;2023-06-01T12:48:31;10.27;;;6.03;;
70825;SDS011;58446;41.490;22.098;2023-06-01T12:50:58;11.93;;;6.20;;
70825;SDS011;58446;41.490;22.098;2023-06-01T12:53:29;9.35;;;5.70;;
70825;SDS011;58446;41.490;22.098;2023-06-01T12:55:55;14.48;;;5.38;;
70825;SDS011;58446;41.490;22.098;2023-06-01T12:58:21;10.68;;;5.45;;
70825;SDS011;58446;41.490;22.098;2023-06-01T13:00:47;9.80;;;4.93;;
70825;SDS011;58446;41.490;22.098;2023-06-01T13:03:14;8.57;;;4.68;;
70825;SDS011;58446;41.490;22.098;2023-06-01T13:05:43;10.18;;;4.82;;
70825;SDS011;58446;41.490;22.098;2023-06-01T13:08:11;11.60;;;6.22;;
70825;SDS011;58446;41.490;22.098;2023-06-01T13:10:38;10.97;;;5.70;;
70825;SDS011;58446;41.490;22.098;2023-06-01T13:13:03;7.70;;;4.75;;
70825;SDS011;58446;41.490;22.098;2023-06-01T13:15:29;10.25;;;5.28;;
70825;SDS011;58446;41.490;22.098;2023-06-01T13:17:55;9.30;;;5.20;;
70825;SDS011;58446;41.490;22.098;2023-06-01T13:20:21;8.75;;;5.22;;
70825;SDS011;58446;41.490;22.098;2023-06-01T13:22:47;11.25;;;5.60;;
70825;SDS011;58446;41.490;22.098;2023-06-01T13:25:14;8.03;;;5.20;;
70825;SDS011;58446;41.490;22.098;2023-06-01T13:27:39;7.57;;;4.85;;
70825;SDS011;58446;41.490;22.098;2023-06-01T13:30:05;8.57;;;5.20;;
70825;SDS011;58446;41.490;22.098;2023-06-01T13:32:32;8.97;;;4.33;;
70825;SDS011;58446;41.490;22.098;2023-06-01T13:34:58;8.68;;;4.63;;
70825;SDS011;58446;41.490;22.098;2023-06-01T13:37:24;7.47;;;3.80;;
70825;SDS011;58446;41.490;22.098;2023-06-01T13:39:50;8.47;;;4.63;;
70825;SDS011;58446;41.490;22.098;2023-06-01T13:42:16;9.43;;;4.50;;
70825;SDS011;58446;41.490;22.098;2023-06-01T13:44:41;8.57;;;4.40;;
70825;SDS011;58446;41.490;22.098;2023-06-01T13:47:11;8.53;;;3.97;;
70825;SDS011;58446;41.490;22.098;2023-06-01T13:49:39;7.55;;;4.53;;
70825;SDS011;58446;41.490;22.098;2023-06-01T13:52:06;8.38;;;4.63;;
70825;SDS011;58446;41.490;22.098;2023-06-01T13:54:32;8.07;;;4.50;;
70825;SDS011;58446;41.490;22.098;2023-06-01T13:56:58;11.57;;;4.83;;
70825;SDS011;58446;41.490;22.098;2023-06-01T13:59:23;9.48;;;4.93;;
70825;SDS011;58446;41.490;22.098;2023-06-01T14:01:49;7.70;;;4.90;;
70825;SDS011;58446;41.490;22.098;2023-06-01T14:04:16;10.20;;;5.07;;
70825;SDS011;58446;41.490;22.098;2023-06-01T14:06:42;10.07;;;4.90;;
70825;SDS011;58446;41.490;22.098;2023-06-01T14:09:08;9.15;;;4.70;;
70825;SDS011;58446;41.490;22.098;2023-06-01T14:11:34;9.03;;;4.37;;
70825;SDS011;58446;41.490;22.098;2023-06-01T14:14:00;8.48;;;5.03;;
70825;SDS011;58446;41.490;22.098;2023-06-01T14:16:25;10.13;;;5.00;;
70825;SDS011;58446;41.490;22.098;2023-06-01T14:18:51;9.48;;;4.57;;
70825;SDS011;58446;41.490;22.098;2023-06-01T14:21:17;7.83;;;4.17;;
70825;SDS011;58446;41.490;22.098;2023-06-01T14:23:42;7.60;;;3.97;;
70825;SDS011;58446;41.490;22.098;2023-06-01T14:26:11;9.20;;;4.73;;
70825;SDS011;58446;41.490;22.098;2023-06-01T14:28:36;7.68;;;4.05;;
70825;SDS011;58446;41.490;22.098;2023-06-01T14:31:02;8.27;;;4.73;;
70825;SDS011;58446;41.490;22.098;2023-06-01T14:33:28;8.05;;;4.53;;
70825;SDS011;58446;41.490;22.098;2023-06-01T14:35:53;8.60;;;4.73;;
70825;SDS011;58446;41.490;22.098;2023-06-01T14:38:19;9.00;;;4.60;;
70825;SDS011;58446;41.490;22.098;2023-06-01T14:40:45;8.40;;;4.63;;
70825;SDS011;58446;41.490;22.098;2023-06-01T14:43:11;8.88;;;5.13;;
70825;SDS011;58446;41.490;22.098;2023-06-01T14:45:36;11.30;;;5.07;;
70825;SDS011;58446;41.490;22.098;2023-06-01T14:48:02;10.73;;;4.78;;
70825;SDS011;58446;41.490;22.098;2023-06-01T14:50:27;10.00;;;5.40;;
70825;SDS011;58446;41.490;22.098;2023-06-01T14:52:53;10.27;;;5.50;;
70825;SDS011;58446;41.490;22.098;2023-06-01T14:55:25;10.13;;;5.10;;
70825;SDS011;58446;41.490;22.098;2023-06-01T14:57:51;9.23;;;4.63;;
70825;SDS011;58446;41.490;22.098;2023-06-01T15:00:17;9.57;;;4.93;;
70825;SDS011;58446;41.490;22.098;2023-06-01T15:02:43;7.65;;;4.93;;
70825;SDS011;58446;41.490;22.098;2023-06-01T15:05:10;8.97;;;5.17;;
70825;SDS011;58446;41.490;22.098;2023-06-01T15:07:36;7.82;;;4.78;;
70825;SDS011;58446;41.490;22.098;2023-06-01T15:10:02;9.65;;;5.45;;